Ordonez, Argentina
Current Conditions -  °F | °C
As of 7:00 AM on Friday 24 Oct 2014 (Local Time) from SAOC Reporting Station
Clear Clear  
Wind Chill: 68°   Ceiling: Unl
Heat Index: 68°   Visibility: 6mi
Dew Point: 57°   Wind: 12mph
Humidity: 68%   Direction: 360°N
Pressure: 29.94"   Gusts: NA
Location:  32.83°S, 62.87°W
Report Text: SAOC 241000Z 36010KT CAVOK 20/14 Q1014
Loading
Personal Weather Stations






























Interactive Weather Map
Tropical Storm Tracking
New forecast layout! Learn more

10-Day Weather Forecast

Advertisements
Track Severe Weather on mobile